DNKA

Kaduna Airport

Kaduna, Nigeria
METAR DNKA 271200Z 31004KT 9999 SCT011 31/20 Q1016
Observed Flight Rules
May-27 @ 12:00 UTC (13 hours ago) Visual Flight Rules
Wind Visibility Clouds
310° at 4 knots 10,000+ meters
  • Scattered at 1,100' AGL
Temperatures Readings
Current 31°C / 88°F
Dewpoint 20°C / 68°F
Humidity 52%
Altimeter 30" Hg
Pressure 1016 hPa
Elevation 642
METAR DNKA 271200Z 31004KT 9999 SCT011 31/20 Q1016
Observed Flight Rules
May-27 @ 12:00 UTC
(13 hours ago)
VFR
Wind Visibility
310° at 4 knots 10,000+ meters
Clouds
  • Scattered at 1,100' AGL
Temperature Dewpoint
31°C / 88°F 20°C / 68°F
Humidity Altimeter Pressure
52% 30" Hg 1016 hPa